Clacton, United Kingdom
Current Conditions -  °F | °C
As of 10:50 PM on Friday 19 Dec 2014 (Local Time) from EGUW Reporting Station
Clear Clear  
Wind Chill: 32°   Ceiling: Unl
Heat Index: 39°   Visibility: 6mi
Dew Point: 34°   Wind: 12mph
Humidity: 81%   Direction: 230°SW
Pressure: 30.12"   Gusts: NA
Location:  51.79°N, 1.16°E
Report Text: EGUW 192250Z AUTO 23010KT 9999 NCD 04/01 Q1020
Loading
Personal Weather Stations






























Interactive Weather Map New forecast layout! Learn more

10-Day Weather Forecast

Advertisements
Track Severe Weather on mobile